Bluff City, Tennessee
Current Conditions -  °F | °C
As of 11:11 AM on Wednesday 22 Oct 2014 (Local Time) from KTRI Reporting Station
Overcast Overcast  
Wind Chill: 50°   Ceiling: 3200
Heat Index: 50°   Visibility: 10mi
Dew Point: 39°   Wind: 7mph
Humidity: 66%   Direction: 340°NNW
Pressure: 30.2"   Gusts: NA
Location:  36.47°N, 82.26°W
Report Text: KTRI 221511Z 34006KT 10SM OVC032 10/04 A3020 RMK AO2 T01000039
Loading
Personal Weather Stations






























Interactive Weather Map
Tropical Storm Tracking
New forecast layout! Learn more

10-Day Weather Forecast

Advertisements
Track Severe Weather on mobile